TimeCST,TemperatureF,Dew PointF,Humidity,Sea Level PressureIn,VisibilityMPH,Wind Direction,Wind SpeedMPH,Gust SpeedMPH,PrecipitationIn,Events,Conditions,WindDirDegrees,DateUTC
12:53 AM,30.0,26.1,85,30.38,5.0,South,8.1,-,N/A,,Clear,180,2012-11-17 06:53:00
1:53 AM,28.9,26.1,89,30.38,5.0,South,8.1,-,N/A,,Clear,170,2012-11-17 07:53:00
2:53 AM,28.0,25.0,88,30.39,5.0,SSE,4.6,-,N/A,,Clear,160,2012-11-17 08:53:00
3:53 AM,27.0,24.1,89,30.38,4.0,SSE,3.5,-,N/A,,Clear,150,2012-11-17 09:53:00
4:53 AM,28.9,26.1,89,30.38,5.0,SSE,6.9,-,N/A,,Clear,150,2012-11-17 10:53:00
5:53 AM,28.9,26.1,89,30.38,5.0,SSE,6.9,-,N/A,,Clear,150,2012-11-17 11:53:00
6:53 AM,30.0,27.0,88,30.38,5.0,SSE,8.1,-,N/A,,Clear,150,2012-11-17 12:53:00
7:53 AM,30.9,28.0,89,30.38,4.0,SSE,10.4,-,N/A,,Clear,150,2012-11-17 13:53:00
8:53 AM,37.0,32.0,82,30.38,5.0,South,8.1,-,N/A,,Haze,170,2012-11-17 14:53:00
9:53 AM,41.0,35.1,79,30.38,6.0,South,11.5,-,N/A,,Haze,170,2012-11-17 15:53:00
10:53 AM,46.9,36.0,66,30.37,9.0,South,12.7,-,N/A,,Clear,180,2012-11-17 16:53:00
11:53 AM,52.0,34.0,50,30.34,10.0,South,17.3,24.2,N/A,,Clear,180,2012-11-17 17:53:00
12:53 PM,55.0,34.0,45,30.31,10.0,South,16.1,29.9,N/A,,Clear,180,2012-11-17 18:53:00
1:53 PM,57.0,33.1,40,30.28,10.0,South,18.4,-,N/A,,Clear,180,2012-11-17 19:53:00
2:53 PM,57.0,33.1,40,30.27,10.0,SSE,20.7,-,N/A,,Clear,160,2012-11-17 20:53:00
3:53 PM,54.0,33.1,45,30.29,10.0,SSE,16.1,-,N/A,,Clear,160,2012-11-17 21:53:00
4:53 PM,50.0,34.0,54,30.28,10.0,SSE,12.7,-,N/A,,Clear,150,2012-11-17 22:53:00
5:53 PM,48.9,35.1,59,30.28,10.0,SSE,13.8,-,N/A,,Clear,150,2012-11-17 23:53:00
6:53 PM,48.0,34.0,58,30.27,10.0,SSE,15.0,-,N/A,,Clear,150,2012-11-18 00:53:00
7:53 PM,46.9,33.1,59,30.27,10.0,SSE,18.4,24.2,N/A,,Clear,150,2012-11-18 01:53:00
8:53 PM,46.0,33.1,61,30.27,10.0,SSE,16.1,26.5,N/A,,Overcast,150,2012-11-18 02:53:00
9:53 PM,46.0,32.0,58,30.28,10.0,SSE,15.0,-,N/A,,Overcast,160,2012-11-18 03:53:00
10:53 PM,44.1,32.0,63,30.27,10.0,SSE,12.7,-,N/A,,Overcast,160,2012-11-18 04:53:00
11:53 PM,45.0,32.0,60,30.27,10.0,SSE,13.8,-,N/A,,Overcast,160,2012-11-18 05:53:00